Time;durP1;ratioP1;P1;durP2;ratioP2;P2;SDS_P1;SDS_P2;PMS_P1;PMS_P2;Temp;Humidity;BMP_temperature;BMP_pressure;BME280_temperature;BME280_humidity;BME280_pressure;Samples;Min_cycle;Max_cycle;Signal;HPM_P1;HPM_P2
2022/05/04 00:04:43;;;;;;;11.37;10.17;;;20.50;49.80;;;;;;5003714;28;20517;-89
2022/05/04 00:07:12;;;;;;;10.87;9.77;;;20.40;49.10;;;;;;5015008;28;20996;-90
2022/05/04 00:09:39;;;;;;;10.67;9.70;;;20.40;49.30;;;;;;5014365;28;20439;-90
2022/05/04 00:12:13;;;;;;;10.70;9.60;;;20.40;49.50;;;;;;5011034;28;21054;-91
2022/05/04 00:14:41;;;;;;;11.87;10.33;;;20.40;49.70;;;;;;5011743;28;20458;-90
2022/05/04 00:17:12;;;;;;;12.13;10.83;;;20.20;49.90;;;;;;5023948;28;20839;-89
2022/05/04 00:19:42;;;;;;;11.43;9.80;;;19.80;50.70;;;;;;5027058;28;20463;-90
2022/05/04 00:22:37;;;;;;;12.67;10.17;;;19.80;50.80;;;;;;5044347;28;20484;-91
2022/05/04 00:25:05;;;;;;;11.97;10.30;;;19.50;51.20;;;;;;5015112;28;20460;-91
2022/05/04 00:30:26;;;;;;;13.33;11.03;;;19.70;51.20;;;;;;5013913;28;20870;-90
2022/05/04 00:32:54;;;;;;;11.50;10.30;;;19.90;50.80;;;;;;5008345;28;20453;-90
2022/05/04 00:35:26;;;;;;;11.23;10.03;;;20.00;50.50;;;;;;5032036;28;20454;-89
2022/05/04 00:37:57;;;;;;;11.03;9.90;;;20.10;50.70;;;;;;5008412;28;20997;-90
2022/05/04 00:40:27;;;;;;;18.10;10.83;;;20.10;50.60;;;;;;5014965;28;20556;-92
2022/05/04 00:42:55;;;;;;;14.03;10.80;;;20.10;50.70;;;;;;5016766;28;20458;-91
2022/05/04 00:45:29;;;;;;;11.97;10.77;;;20.00;50.90;;;;;;5029948;28;20453;-91
2022/05/04 00:48:47;;;;;;;12.77;10.60;;;20.00;51.10;;;;;;5005744;28;20539;-90
2022/05/04 00:51:39;;;;;;;16.03;10.67;;;20.00;51.10;;;;;;5027441;28;20453;-90
2022/05/04 00:57:06;;;;;;;11.37;10.20;;;20.00;51.50;;;;;;5016237;28;20875;-90
2022/05/04 00:59:37;;;;;;;12.53;10.73;;;20.00;51.40;;;;;;5015264;28;20453;-90
2022/05/04 01:04:56;;;;;;;12.03;10.80;;;19.90;51.90;;;;;;5016296;28;20529;-90
2022/05/04 01:07:51;;;;;;;13.00;10.30;;;19.90;52.00;;;;;;5014519;28;20504;-89
2022/05/04 01:10:45;;;;;;;16.57;12.23;;;19.90;52.30;;;;;;5025619;28;20702;-90
2022/05/04 01:13:20;;;;;;;11.63;10.00;;;19.90;52.40;;;;;;5030327;28;20457;-90
2022/05/04 01:15:49;;;;;;;11.90;10.40;;;19.90;52.20;;;;;;5043906;28;21820;-88
2022/05/04 01:18:22;;;;;;;10.80;9.80;;;19.90;52.10;;;;;;5023383;28;21264;-89
2022/05/04 01:20:50;;;;;;;11.50;10.40;;;19.90;52.00;;;;;;5029547;28;20450;-90
2022/05/04 01:23:47;;;;;;;12.73;9.80;;;19.90;51.50;;;;;;5025512;28;20836;-90
2022/05/04 01:26:18;;;;;;;11.77;9.73;;;19.90;51.30;;;;;;5007096;28;20473;-90
2022/05/04 01:28:47;;;;;;;12.57;11.27;;;19.90;51.20;;;;;;5011958;28;20921;-87
2022/05/04 01:31:15;;;;;;;11.67;10.57;;;19.90;51.20;;;;;;4997626;28;20881;-89
2022/05/04 01:33:42;;;;;;;11.80;10.60;;;19.80;51.00;;;;;;5024999;28;20541;-90
2022/05/04 01:36:09;;;;;;;12.30;10.50;;;19.80;52.20;;;;;;5010747;28;20980;-90
2022/05/04 01:38:40;;;;;;;12.13;10.90;;;19.70;51.50;;;;;;5031645;28;20433;-90
2022/05/04 01:47:39;;;;;;;13.87;10.80;;;19.60;51.80;;;;;;5021398;28;20481;-89
2022/05/04 01:53:55;;;;;;;14.67;10.97;;;19.30;52.60;;;;;;5016773;28;21163;-90
2022/05/04 01:56:49;;;;;;;12.30;10.90;;;19.20;52.80;;;;;;5002066;28;20656;-88
2022/05/04 01:59:17;;;;;;;12.67;11.30;;;19.30;52.70;;;;;;5002959;28;20441;-91
2022/05/04 02:01:47;;;;;;;11.87;10.43;;;19.40;52.80;;;;;;5023843;28;20466;-91
2022/05/04 02:08:43;;;;;;;11.20;10.10;;;19.50;52.50;;;;;;5022844;28;20453;-89
2022/05/04 02:11:37;;;;;;;11.87;10.43;;;19.50;52.80;;;;;;5015853;28;20450;-90
2022/05/04 02:14:34;;;;;;;14.90;13.50;;;19.40;53.90;;;;;;5005735;28;20458;-89
2022/05/04 02:17:02;;;;;;;10.97;9.87;;;19.30;54.20;;;;;;5028164;28;20486;-89
2022/05/04 02:19:59;;;;;;;11.63;10.43;;;19.30;54.30;;;;;;4995247;28;20450;-88
2022/05/04 02:22:27;;;;;;;12.27;11.07;;;19.40;53.90;;;;;;4994734;28;20467;-89
2022/05/04 02:24:55;;;;;;;13.10;11.43;;;19.30;53.50;;;;;;5029131;28;20470;-90
2022/05/04 02:31:31;;;;;;;14.13;11.40;;;19.40;53.00;;;;;;5040531;28;20445;-90
2022/05/04 02:40:24;;;;;;;14.57;12.27;;;19.40;53.30;;;;;;5030593;28;20425;-90
2022/05/04 02:42:51;;;;;;;13.80;12.13;;;19.30;53.10;;;;;;5017878;28;20531;-92
2022/05/04 02:45:24;;;;;;;12.90;11.57;;;19.30;53.00;;;;;;5032942;28;20500;-91
2022/05/04 02:47:58;;;;;;;12.83;11.53;;;19.30;53.10;;;;;;5035585;28;21002;-89
2022/05/04 02:50:30;;;;;;;12.97;11.60;;;19.30;53.30;;;;;;5026055;28;20551;-89
2022/05/04 02:53:22;;;;;;;13.43;10.67;;;19.30;53.40;;;;;;5002153;28;20548;-90
2022/05/04 02:55:52;;;;;;;13.87;10.83;;;19.30;53.40;;;;;;5018556;28;20464;-89
2022/05/04 02:58:21;;;;;;;11.43;10.03;;;19.30;53.50;;;;;;5054582;28;20540;-91
2022/05/04 03:00:48;;;;;;;15.50;11.07;;;19.30;53.50;;;;;;5021770;28;20460;-89
2022/05/04 03:03:16;;;;;;;13.03;11.30;;;19.20;53.20;;;;;;5015664;28;20441;-90
2022/05/04 03:05:47;;;;;;;12.70;10.90;;;19.20;53.20;;;;;;5026971;28;20448;-90
2022/05/04 03:08:15;;;;;;;12.53;11.23;;;19.20;53.40;;;;;;5016717;28;20480;-89
2022/05/04 03:13:23;;;;;;;13.50;10.90;;;19.10;53.70;;;;;;5015092;28;20438;-90
2022/05/04 03:15:50;;;;;;;12.57;11.27;;;19.10;53.90;;;;;;5003948;28;21075;-90
2022/05/04 03:18:19;;;;;;;19.47;12.40;;;19.00;54.40;;;;;;5039311;28;20460;-90
2022/05/04 03:20:46;;;;;;;13.87;12.10;;;19.00;54.80;;;;;;5018160;28;20453;-89
2022/05/04 03:23:13;;;;;;;13.47;11.90;;;18.90;55.10;;;;;;5037489;28;20500;-90
2022/05/04 03:25:41;;;;;;;14.10;12.30;;;19.00;55.00;;;;;;5033985;28;20438;-89
2022/05/04 03:28:12;;;;;;;12.30;11.00;;;18.90;54.10;;;;;;5029752;28;20532;-90
2022/05/04 03:30:40;;;;;;;12.33;10.37;;;18.60;54.10;;;;;;5024083;28;20448;-90
2022/05/04 03:33:07;;;;;;;12.33;11.13;;;18.60;54.60;;;;;;5018619;28;20963;-90
2022/05/04 03:35:36;;;;;;;12.30;10.63;;;18.70;54.30;;;;;;5010203;28;20450;-90
2022/05/04 03:38:03;;;;;;;13.30;11.90;;;18.80;54.40;;;;;;5047723;28;20450;-92
2022/05/04 03:40:31;;;;;;;13.50;12.13;;;18.80;54.10;;;;;;4999767;28;20453;-90
2022/05/04 03:42:58;;;;;;;13.63;12.20;;;18.80;54.40;;;;;;5020299;28;20448;-88
2022/05/04 03:45:25;;;;;;;13.40;12.10;;;18.80;53.80;;;;;;5011306;28;20449;-90
2022/05/04 03:47:53;;;;;;;15.27;12.50;;;18.80;54.00;;;;;;5011401;28;20473;-91
2022/05/04 03:50:20;;;;;;;12.80;11.50;;;18.80;53.90;;;;;;4988801;28;20476;-92
2022/05/04 03:52:48;;;;;;;12.80;11.07;;;18.80;53.90;;;;;;4990510;28;20477;-91
2022/05/04 03:55:15;;;;;;;12.70;11.40;;;18.90;53.90;;;;;;4995879;28;20460;-91
2022/05/04 03:57:42;;;;;;;17.03;11.50;;;18.90;53.90;;;;;;4996592;28;20532;-91
2022/05/04 04:00:10;;;;;;;15.63;12.30;;;19.00;54.00;;;;;;5009911;28;20478;-90
2022/05/04 04:02:37;;;;;;;13.30;11.93;;;19.00;54.10;;;;;;5020229;28;20454;-92
2022/05/04 04:05:05;;;;;;;15.20;12.50;;;18.90;53.90;;;;;;5018805;28;20454;-91
2022/05/04 04:07:32;;;;;;;15.50;12.40;;;19.00;53.90;;;;;;5011524;28;20477;-90
2022/05/04 04:10:00;;;;;;;15.03;11.60;;;18.40;54.50;;;;;;5035795;28;20484;-92
2022/05/04 04:12:27;;;;;;;13.83;12.40;;;18.50;54.80;;;;;;5021307;28;20464;-92
2022/05/04 04:14:54;;;;;;;13.47;12.07;;;18.50;54.70;;;;;;5010990;28;20495;-90
2022/05/04 04:17:21;;;;;;;14.93;13.20;;;18.20;55.10;;;;;;5006486;28;21301;-91
2022/05/04 04:21:50;;;;;;;13.63;12.23;;;18.10;56.70;;;;;;5004073;28;20461;-91
2022/05/04 04:22:37;;;;;;;15.20;13.60;;;18.00;56.00;;;;;;5019775;28;20516;-91
2022/05/04 04:25:07;;;;;;;17.73;14.10;;;18.20;55.90;;;;;;5038756;28;20467;-91
2022/05/04 04:27:35;;;;;;;17.00;14.27;;;18.10;56.10;;;;;;5003534;28;20469;-92
2022/05/04 04:30:02;;;;;;;16.00;12.57;;;18.00;55.70;;;;;;5017991;28;20756;-95
2022/05/04 04:32:29;;;;;;;16.50;13.00;;;18.00;56.30;;;;;;5006206;28;20454;-90
2022/05/04 04:34:56;;;;;;;16.47;12.27;;;18.30;56.40;;;;;;5038634;28;20470;-92
2022/05/04 04:37:23;;;;;;;15.27;12.70;;;18.50;56.20;;;;;;4998025;28;20477;-91
2022/05/04 04:39:50;;;;;;;16.37;13.10;;;18.60;56.10;;;;;;5007470;28;20442;-91
2022/05/04 04:42:18;;;;;;;16.03;13.17;;;18.40;55.90;;;;;;5028570;28;20541;-91
2022/05/04 04:44:45;;;;;;;16.00;13.10;;;18.20;56.40;;;;;;5009538;28;21184;-91
2022/05/04 04:47:12;;;;;;;15.60;13.30;;;18.30;56.40;;;;;;5020045;28;20521;-92
2022/05/04 04:49:39;;;;;;;14.23;12.73;;;18.40;56.10;;;;;;5020064;28;20508;-91
2022/05/04 04:52:07;;;;;;;19.07;13.70;;;18.60;56.20;;;;;;5004669;28;20481;-92
2022/05/04 04:54:34;;;;;;;15.63;13.80;;;18.70;56.00;;;;;;4991187;28;20450;-91
2022/05/04 04:57:01;;;;;;;15.93;13.40;;;18.80;55.90;;;;;;5012158;28;20477;-90
2022/05/04 04:59:29;;;;;;;14.50;13.00;;;18.80;55.60;;;;;;5011451;28;20481;-91
2022/05/04 05:01:56;;;;;;;19.40;14.10;;;18.90;55.20;;;;;;4997637;28;20446;-93
2022/05/04 05:04:23;;;;;;;15.53;12.97;;;18.90;55.20;;;;;;5005146;28;20552;-91
2022/05/04 05:06:51;;;;;;;14.40;12.90;;;18.90;56.00;;;;;;5003071;28;20474;-92
2022/05/04 05:09:47;;;;;;;16.63;12.60;;;18.90;55.60;;;;;;4992669;28;20625;-92
2022/05/04 05:12:14;;;;;;;16.33;13.97;;;19.00;55.50;;;;;;5020879;28;20442;-90
2022/05/04 05:17:29;;;;;;;17.47;13.57;;;19.00;55.50;;;;;;5018329;28;20978;-91
2022/05/04 05:19:57;;;;;;;15.20;13.67;;;19.10;55.50;;;;;;5027042;28;20471;-91
2022/05/04 05:22:24;;;;;;;13.63;12.23;;;19.00;55.50;;;;;;5018477;28;20444;-96
2022/05/04 05:24:51;;;;;;;16.47;12.83;;;19.10;55.70;;;;;;5023168;28;20488;-92
2022/05/04 05:27:18;;;;;;;14.50;13.00;;;19.10;55.70;;;;;;5009699;28;21060;-92
2022/05/04 05:29:47;;;;;;;15.83;13.40;;;19.10;55.70;;;;;;5011823;28;20466;-89
2022/05/04 05:32:42;;;;;;;18.03;13.87;;;19.20;55.60;;;;;;5014793;28;20868;-91
2022/05/04 05:35:11;;;;;;;19.17;13.70;;;19.20;55.10;;;;;;5023536;28;20445;-96
2022/05/04 05:37:38;;;;;;;14.70;13.13;;;19.20;55.10;;;;;;5028325;28;20470;-89
2022/05/04 05:42:59;;;;;;;14.07;12.30;;;19.20;55.00;;;;;;5006711;28;20450;-90
2022/05/04 05:45:28;;;;;;;13.87;12.40;;;19.10;55.30;;;;;;5009716;28;20509;-91
2022/05/04 05:47:57;;;;;;;19.07;13.00;;;19.00;55.80;;;;;;5033868;28;20474;-92
2022/05/04 05:50:25;;;;;;;17.27;13.60;;;19.00;56.00;;;;;;5020136;28;20493;-89
2022/05/04 05:52:52;;;;;;;16.73;13.60;;;19.10;55.40;;;;;;5042135;28;20448;-91
2022/05/04 05:55:19;;;;;;;18.37;13.80;;;19.10;55.60;;;;;;5011392;28;20512;-90
2022/05/04 05:57:46;;;;;;;14.40;12.90;;;19.10;55.60;;;;;;4997353;28;20479;-89
2022/05/04 06:00:17;;;;;;;16.93;13.67;;;19.00;55.60;;;;;;5007647;28;20850;-92
2022/05/04 06:02:47;;;;;;;19.53;12.60;;;18.80;56.10;;;;;;5019590;28;20458;-90
2022/05/04 06:05:14;;;;;;;17.23;13.60;;;18.90;56.30;;;;;;5000819;28;20500;-90
2022/05/04 06:07:41;;;;;;;15.80;13.53;;;18.90;56.30;;;;;;5016242;28;21170;-89
2022/05/04 06:10:09;;;;;;;15.43;13.80;;;19.00;56.10;;;;;;5018020;28;20520;-92
2022/05/04 06:12:38;;;;;;;16.67;13.70;;;18.90;56.30;;;;;;5032646;28;20997;-89
2022/05/04 06:15:08;;;;;;;17.10;13.87;;;19.00;56.00;;;;;;5023731;28;20556;-87
2022/05/04 06:17:35;;;;;;;16.67;14.20;;;19.00;56.30;;;;;;5029307;28;20860;-89
2022/05/04 06:20:04;;;;;;;15.97;13.07;;;19.10;56.20;;;;;;4994060;28;20462;-92
2022/05/04 06:22:31;;;;;;;14.63;13.03;;;19.20;55.50;;;;;;5008247;28;20462;-91
2022/05/04 06:24:58;;;;;;;14.60;13.03;;;19.30;55.40;;;;;;5010860;28;20450;-92
2022/05/04 06:27:28;;;;;;;15.90;13.10;;;19.40;55.60;;;;;;5012536;28;20453;-89
2022/05/04 06:35:26;;;;;;;16.03;14.07;;;19.30;56.10;;;;;;5019892;28;20480;-90
2022/05/04 06:37:54;;;;;;;16.90;14.10;;;19.10;56.00;;;;;;5021331;28;20495;-90
2022/05/04 06:40:23;;;;;;;16.93;14.20;;;19.10;56.90;;;;;;4991157;28;20461;-92
2022/05/04 06:42:51;;;;;;;20.07;15.37;;;19.10;56.60;;;;;;4995584;28;20631;-91
2022/05/04 06:45:18;;;;;;;16.67;14.23;;;19.10;56.70;;;;;;5001753;28;20453;-89
2022/05/04 06:47:45;;;;;;;15.83;13.33;;;19.40;55.70;;;;;;5030157;28;20494;-91
2022/05/04 06:50:17;;;;;;;15.30;12.70;;;19.70;55.00;;;;;;4992308;28;20880;-90
2022/05/04 06:52:45;;;;;;;14.77;12.93;;;20.00;54.30;;;;;;5021873;28;20477;-90
2022/05/04 06:55:13;;;;;;;14.27;12.77;;;19.90;54.90;;;;;;5015680;28;20463;-89
2022/05/04 06:57:41;;;;;;;16.13;13.20;;;19.90;54.30;;;;;;5002982;28;20462;-88
2022/05/04 07:00:35;;;;;;;17.90;14.10;;;20.00;54.10;;;;;;5005024;28;20451;-91
2022/05/04 07:03:31;;;;;;;16.47;13.20;;;20.10;54.20;;;;;;5034265;28;20462;-91
2022/05/04 07:05:59;;;;;;;16.83;12.80;;;20.00;53.10;;;;;;5008565;28;20466;-90
2022/05/04 07:08:28;;;;;;;15.87;12.90;;;19.90;53.10;;;;;;5002963;28;20952;-91
2022/05/04 07:10:55;;;;;;;15.10;13.20;;;19.80;53.80;;;;;;5020597;28;20473;-89
2022/05/04 07:13:23;;;;;;;13.33;11.80;;;19.80;53.60;;;;;;5023832;28;20504;-89
2022/05/04 07:15:51;;;;;;;20.87;13.23;;;20.10;53.70;;;;;;5022815;28;20525;-89
2022/05/04 07:18:18;;;;;;;14.23;12.80;;;20.30;52.70;;;;;;5013278;28;21022;-88
2022/05/04 07:20:45;;;;;;;17.10;12.60;;;20.40;51.80;;;;;;5037003;28;20445;-90
2022/05/04 07:23:12;;;;;;;13.93;12.47;;;20.20;51.90;;;;;;5023586;28;20450;-89
2022/05/04 07:25:41;;;;;;;15.73;12.63;;;20.20;52.30;;;;;;5036107;28;20449;-89
2022/05/04 07:28:08;;;;;;;14.03;12.53;;;20.50;52.10;;;;;;5020823;28;20450;-91
2022/05/04 07:30:35;;;;;;;20.17;12.70;;;20.60;51.40;;;;;;4989825;28;21078;-90
2022/05/04 07:33:02;;;;;;;14.20;12.00;;;20.80;51.50;;;;;;5015524;28;20450;-86
2022/05/04 07:35:29;;;;;;;13.50;12.10;;;20.90;50.80;;;;;;5034249;28;20448;-91
2022/05/04 07:37:56;;;;;;;15.90;13.03;;;20.80;50.70;;;;;;5033216;28;20933;-89
2022/05/04 07:43:09;;;;;;;16.03;12.33;;;20.70;50.90;;;;;;5007185;28;20450;-89
2022/05/04 07:45:36;;;;;;;14.17;12.40;;;20.80;50.60;;;;;;5020496;28;20442;-89
2022/05/04 07:48:03;;;;;;;13.27;11.10;;;20.80;50.10;;;;;;4984929;28;20462;-90
2022/05/04 07:50:30;;;;;;;13.50;11.87;;;20.90;50.40;;;;;;5011468;28;20491;-92
2022/05/04 07:52:57;;;;;;;16.67;12.97;;;21.00;50.00;;;;;;4997918;28;20477;-90
2022/05/04 07:55:25;;;;;;;13.20;11.80;;;21.00;49.40;;;;;;5011131;28;20957;-90
2022/05/04 07:57:52;;;;;;;15.50;13.30;;;21.00;49.90;;;;;;5001531;28;20470;-90
2022/05/04 08:05:49;;;;;;;13.80;12.30;;;21.20;49.60;;;;;;5019685;28;20447;-91
2022/05/04 08:08:16;;;;;;;13.97;11.90;;;21.10;49.00;;;;;;5004972;28;20437;-89
2022/05/04 08:10:43;;;;;;;15.53;11.80;;;21.00;49.40;;;;;;5030969;28;20470;-91
2022/05/04 08:13:10;;;;;;;12.57;11.27;;;21.10;50.10;;;;;;5022526;28;20605;-91
2022/05/04 08:15:39;;;;;;;18.67;13.80;;;21.30;49.40;;;;;;5002562;28;20509;-90
2022/05/04 08:18:06;;;;;;;14.00;12.50;;;21.40;48.90;;;;;;5015683;28;20500;-87
2022/05/04 08:20:33;;;;;;;13.87;11.77;;;21.80;49.20;;;;;;4999866;28;20450;-89
2022/05/04 08:23:00;;;;;;;16.30;13.17;;;21.90;48.30;;;;;;5009409;28;20559;-89
2022/05/04 08:25:27;;;;;;;15.63;12.60;;;21.90;47.60;;;;;;5022939;28;20564;-89
2022/05/04 08:27:54;;;;;;;13.93;12.47;;;21.70;48.70;;;;;;5008652;28;20585;-88
2022/05/04 08:30:22;;;;;;;21.23;12.30;;;21.70;48.40;;;;;;5008894;28;20466;-88
2022/05/04 08:32:51;;;;;;;14.20;12.50;;;21.80;49.10;;;;;;5010307;28;20505;-89
2022/05/04 08:35:18;;;;;;;14.57;13.07;;;22.00;48.50;;;;;;5007447;28;20460;-89
2022/05/04 08:37:46;;;;;;;15.27;12.87;;;22.10;48.30;;;;;;4998566;28;20470;-90
2022/05/04 08:40:14;;;;;;;13.00;11.70;;;22.40;48.60;;;;;;5008216;28;21172;-89
2022/05/04 08:42:42;;;;;;;13.30;11.83;;;22.60;47.50;;;;;;4992823;28;20454;-89
2022/05/04 08:45:11;;;;;;;14.90;12.23;;;23.00;47.60;;;;;;5024572;28;20957;-89
2022/05/04 08:47:40;;;;;;;13.33;10.97;;;23.10;46.80;;;;;;5023179;28;20490;-89
2022/05/04 08:50:14;;;;;;;15.20;10.90;;;23.30;46.40;;;;;;5003685;28;20554;-90
2022/05/04 08:52:51;;;;;;;18.90;12.83;;;23.30;46.10;;;;;;5040063;28;20442;-90
2022/05/04 08:55:19;;;;;;;13.90;11.00;;;23.00;46.10;;;;;;5011950;28;20473;-90
2022/05/04 08:57:46;;;;;;;11.97;10.30;;;22.70;47.20;;;;;;4993276;28;20473;-92
2022/05/04 09:00:14;;;;;;;12.37;11.00;;;23.00;47.70;;;;;;5008747;28;20456;-91
2022/05/04 09:02:41;;;;;;;18.73;10.87;;;23.10;47.60;;;;;;5005754;28;20453;-90
2022/05/04 09:05:18;;;;;;;12.80;11.40;;;23.20;47.20;;;;;;5017931;28;20525;-90
2022/05/04 09:07:47;;;;;;;14.73;11.20;;;23.30;46.20;;;;;;5027661;28;20536;-91
2022/05/04 09:10:19;;;;;;;12.70;11.40;;;23.40;46.20;;;;;;5006829;28;21339;-90
2022/05/04 09:12:48;;;;;;;16.00;11.17;;;23.60;45.90;;;;;;5031703;28;21141;-93
2022/05/04 09:15:23;;;;;;;12.60;10.33;;;24.00;46.10;;;;;;4996441;28;20475;-90
2022/05/04 09:17:58;;;;;;;13.23;11.90;;;24.00;45.40;;;;;;5024987;28;20470;-90
2022/05/04 09:20:48;;;;;;;15.97;11.90;;;24.00;44.30;;;;;;5024706;28;20544;-90
2022/05/04 09:23:19;;;;;;;13.80;10.40;;;23.90;43.90;;;;;;5033966;28;20443;-89
2022/05/04 09:25:49;;;;;;;10.87;9.87;;;24.00;45.10;;;;;;5003539;28;20476;-89
2022/05/04 09:28:16;;;;;;;13.97;10.77;;;24.20;45.30;;;;;;5021534;28;20449;-89
2022/05/04 09:30:46;;;;;;;12.60;11.00;;;24.50;44.50;;;;;;5022437;28;20674;-90
2022/05/04 09:33:17;;;;;;;11.80;10.17;;;24.50;44.40;;;;;;5023522;28;20543;-88
2022/05/04 09:35:46;;;;;;;11.77;10.67;;;24.50;43.60;;;;;;5005881;28;20446;-89
2022/05/04 09:46:39;;;;;;;10.40;9.40;;;24.60;42.70;;;;;;5032122;28;20501;-90
2022/05/04 09:49:11;;;;;;;10.17;9.20;;;24.80;42.80;;;;;;4989063;28;20442;-88
2022/05/04 09:51:41;;;;;;;9.83;8.90;;;24.80;41.20;;;;;;5005742;28;20454;-89
2022/05/04 09:54:17;;;;;;;11.20;9.83;;;25.10;42.80;;;;;;4990683;28;20477;-89
2022/05/04 09:56:46;;;;;;;11.80;9.70;;;25.30;40.10;;;;;;5035511;28;20474;-89
2022/05/04 09:59:15;;;;;;;10.00;9.00;;;25.30;41.00;;;;;;5013105;28;20451;-88
2022/05/04 10:01:44;;;;;;;10.43;8.97;;;25.60;40.80;;;;;;5024771;28;20450;-89
2022/05/04 10:04:11;;;;;;;9.00;7.83;;;25.80;39.80;;;;;;5035234;28;20961;-90
2022/05/04 10:06:40;;;;;;;10.73;8.97;;;26.00;39.90;;;;;;5019799;28;20464;-89
2022/05/04 10:09:08;;;;;;;8.90;8.00;;;26.20;39.90;;;;;;5012158;28;21381;-89
2022/05/04 10:11:35;;;;;;;8.03;7.23;;;26.40;40.10;;;;;;5012547;28;20475;-89
2022/05/04 10:14:07;;;;;;;8.90;8.00;;;26.50;37.80;;;;;;5014621;28;20454;-88
2022/05/04 10:16:40;;;;;;;10.47;9.37;;;26.60;38.10;;;;;;5002283;28;21301;-91
2022/05/04 10:19:12;;;;;;;8.23;7.50;;;26.70;36.70;;;;;;5003849;28;20462;-88
2022/05/04 10:21:44;;;;;;;10.03;7.57;;;26.50;37.90;;;;;;5005714;28;20788;-89
2022/05/04 10:24:12;;;;;;;9.17;8.33;;;25.90;36.00;;;;;;4988321;28;20450;-89
2022/05/04 10:26:39;;;;;;;7.80;7.10;;;25.40;40.10;;;;;;5035104;28;20472;-90
2022/05/04 10:32:08;;;;;;;10.20;8.40;;;24.90;38.60;;;;;;4996533;28;21248;-88
2022/05/04 10:34:41;;;;;;;8.70;7.90;;;25.10;40.80;;;;;;5030634;28;20533;-90
2022/05/04 10:37:10;;;;;;;11.10;8.10;;;25.10;39.90;;;;;;5026617;28;20891;-87
2022/05/04 10:39:37;;;;;;;7.93;7.20;;;25.30;41.50;;;;;;5011745;28;20443;-89
2022/05/04 10:42:04;;;;;;;7.60;6.80;;;25.40;39.80;;;;;;5008975;28;20524;-87
2022/05/04 10:44:54;;;;;;;7.50;6.80;;;25.40;39.60;;;;;;5037499;28;20456;-87
2022/05/04 10:47:22;;;;;;;7.97;7.13;;;25.40;41.50;;;;;;4995965;28;20469;-88
2022/05/04 10:49:59;;;;;;;10.37;6.93;;;25.50;40.30;;;;;;5012919;28;20465;-91
2022/05/04 10:52:32;;;;;;;7.90;6.63;;;25.50;40.60;;;;;;5007959;28;20548;-89
2022/05/04 10:55:03;;;;;;;12.13;9.23;;;25.30;40.00;;;;;;5023253;28;20447;-88
2022/05/04 10:57:41;;;;;;;8.73;7.47;;;25.10;39.70;;;;;;5015022;28;20465;-89
2022/05/04 11:00:10;;;;;;;7.17;6.47;;;24.80;41.80;;;;;;5004268;28;20479;-91
2022/05/04 11:02:43;;;;;;;8.53;7.50;;;24.60;39.70;;;;;;5026444;28;20465;-87
2022/05/04 11:05:25;;;;;;;9.30;6.87;;;24.80;41.60;;;;;;5024654;28;20460;-89
2022/05/04 11:07:54;;;;;;;7.37;6.73;;;24.80;40.80;;;;;;5019693;28;20458;-90
2022/05/04 11:10:22;;;;;;;7.27;6.50;;;24.90;40.50;;;;;;5008204;28;20957;-90
2022/05/04 11:12:49;;;;;;;9.50;6.13;;;24.80;41.00;;;;;;5024045;28;20950;-92
2022/05/04 11:15:16;;;;;;;8.30;6.67;;;24.70;41.70;;;;;;5011720;28;20439;-89
2022/05/04 11:17:43;;;;;;;8.47;6.60;;;24.80;41.70;;;;;;5002960;28;21087;-89
2022/05/04 11:20:13;;;;;;;7.50;6.80;;;24.70;42.30;;;;;;5025832;28;20448;-88
2022/05/04 11:22:40;;;;;;;8.03;7.33;;;24.40;42.70;;;;;;5009263;28;20450;-91
2022/05/04 11:25:10;;;;;;;7.97;7.17;;;24.30;43.90;;;;;;5018943;28;20457;-91
2022/05/04 11:27:37;;;;;;;8.93;7.57;;;24.30;44.70;;;;;;5019466;28;20474;-90
2022/05/04 11:30:06;;;;;;;8.47;7.67;;;24.20;44.60;;;;;;4990286;28;20449;-90
2022/05/04 11:32:34;;;;;;;8.03;7.23;;;24.00;44.90;;;;;;5024943;28;20473;-92
2022/05/04 11:35:01;;;;;;;9.40;8.40;;;23.80;47.50;;;;;;5043404;28;20816;-90
2022/05/04 11:37:31;;;;;;;9.23;8.33;;;23.60;49.70;;;;;;5014800;28;20461;-91
2022/05/04 11:39:58;;;;;;;9.77;8.77;;;23.60;50.20;;;;;;5039253;28;20453;-91
2022/05/04 11:42:27;;;;;;;14.67;8.10;;;23.50;51.10;;;;;;5003893;28;20546;-89
2022/05/04 11:44:56;;;;;;;10.33;9.43;;;23.40;51.00;;;;;;5031986;28;20444;-89
2022/05/04 11:47:23;;;;;;;8.10;7.40;;;23.10;52.00;;;;;;5015864;28;21192;-87
2022/05/04 11:49:54;;;;;;;9.43;8.20;;;22.80;52.30;;;;;;5028774;28;20454;-88
2022/05/04 11:52:22;;;;;;;9.87;8.40;;;22.50;52.10;;;;;;5011023;28;20466;-88
2022/05/04 11:54:49;;;;;;;9.43;8.17;;;22.30;53.50;;;;;;5010278;28;20446;-87
2022/05/04 11:57:19;;;;;;;8.53;7.70;;;21.80;54.60;;;;;;5031587;28;20481;-88
2022/05/04 11:59:47;;;;;;;7.53;6.73;;;21.80;53.90;;;;;;4996807;28;20451;-88
2022/05/04 12:02:14;;;;;;;6.57;5.87;;;21.50;53.40;;;;;;5014219;28;20445;-88
2022/05/04 12:04:42;;;;;;;8.63;7.50;;;21.20;52.90;;;;;;5002616;28;20447;-88
2022/05/04 12:07:10;;;;;;;7.20;6.50;;;21.20;53.70;;;;;;5013759;28;20461;-87
2022/05/04 12:09:37;;;;;;;8.47;7.20;;;21.20;53.40;;;;;;5028710;28;20496;-86
2022/05/04 12:12:05;;;;;;;12.40;8.30;;;21.30;54.60;;;;;;5030168;28;20628;-86
2022/05/04 12:14:33;;;;;;;8.83;7.57;;;21.30;55.60;;;;;;5011420;28;20458;-86
2022/05/04 12:17:01;;;;;;;9.20;8.30;;;21.60;56.10;;;;;;5029619;28;20492;-86
2022/05/04 12:19:30;;;;;;;8.90;7.83;;;22.00;57.40;;;;;;5013581;28;20486;-86
2022/05/04 12:21:57;;;;;;;9.20;8.27;;;22.50;56.90;;;;;;5015711;28;20478;-85
2022/05/04 12:24:24;;;;;;;10.47;8.83;;;22.90;56.20;;;;;;5029775;28;20547;-85
2022/05/04 12:26:55;;;;;;;10.93;9.07;;;23.10;55.70;;;;;;4996084;28;20905;-86
2022/05/04 12:35:21;;;;;;;10.30;9.30;;;23.00;53.90;;;;;;5010606;28;20904;-85
2022/05/04 12:37:50;;;;;;;14.30;9.10;;;22.80;54.20;;;;;;4995609;28;20493;-87
2022/05/04 12:40:17;;;;;;;11.37;10.17;;;22.90;54.90;;;;;;5000933;28;20449;-86
2022/05/04 12:42:45;;;;;;;11.63;9.40;;;23.10;53.90;;;;;;5020133;28;20512;-85
2022/05/04 12:45:16;;;;;;;9.83;8.93;;;23.30;52.60;;;;;;5010103;28;20597;-86
2022/05/04 12:47:44;;;;;;;9.10;8.30;;;23.40;53.10;;;;;;5012089;28;21251;-86
2022/05/04 12:50:13;;;;;;;10.90;9.77;;;23.40;53.10;;;;;;5019964;28;20455;-86
2022/05/04 12:52:40;;;;;;;16.63;9.90;;;23.40;51.30;;;;;;5027165;28;20502;-87
2022/05/04 12:55:08;;;;;;;12.27;8.60;;;23.70;52.20;;;;;;5025452;28;20458;-86
2022/05/04 12:57:35;;;;;;;11.43;10.00;;;23.60;51.00;;;;;;5029124;28;20486;-86
2022/05/04 13:00:02;;;;;;;10.13;9.23;;;23.70;52.50;;;;;;5026173;28;20442;-87
2022/05/04 13:02:56;;;;;;;11.07;8.70;;;23.40;51.70;;;;;;5027854;28;20453;-87
2022/05/04 13:05:24;;;;;;;10.50;9.30;;;23.00;51.30;;;;;;5010169;28;20815;-87
2022/05/04 13:07:52;;;;;;;9.30;8.30;;;23.00;51.70;;;;;;4992664;28;20480;-87
2022/05/04 13:10:19;;;;;;;9.07;8.17;;;23.10;53.80;;;;;;5013453;28;21336;-87
2022/05/04 13:12:46;;;;;;;10.60;8.23;;;23.30;52.10;;;;;;5025299;28;20465;-89
2022/05/04 13:15:13;;;;;;;8.70;7.03;;;23.20;52.50;;;;;;5008953;28;20453;-89
2022/05/04 13:17:42;;;;;;;8.60;7.77;;;23.30;51.90;;;;;;5030858;28;20482;-89
2022/05/04 13:20:14;;;;;;;11.87;8.07;;;23.40;50.70;;;;;;5008808;28;20450;-88
2022/05/04 13:22:42;;;;;;;7.97;7.27;;;23.40;51.60;;;;;;4997176;28;20458;-88
2022/05/04 13:25:11;;;;;;;8.33;7.50;;;23.40;49.50;;;;;;5013448;28;20458;-89
2022/05/04 13:27:38;;;;;;;8.63;7.77;;;23.60;51.00;;;;;;5022304;28;20510;-89
2022/05/04 13:30:06;;;;;;;8.10;6.80;;;23.50;49.40;;;;;;5000852;28;20442;-88
2022/05/04 13:32:33;;;;;;;9.57;7.70;;;23.70;48.50;;;;;;5006461;28;20473;-87
2022/05/04 13:35:01;;;;;;;10.80;7.20;;;23.80;48.90;;;;;;5017260;28;20453;-89
2022/05/04 13:37:29;;;;;;;8.60;7.80;;;24.20;49.50;;;;;;5010135;28;21030;-91
2022/05/04 13:39:56;;;;;;;7.90;7.20;;;24.50;48.90;;;;;;5033613;28;20438;-90
2022/05/04 13:42:23;;;;;;;8.30;7.50;;;24.80;46.30;;;;;;5025692;28;20459;-88
2022/05/04 13:44:51;;;;;;;8.70;6.83;;;24.80;45.40;;;;;;5027992;28;20460;-88
2022/05/04 13:47:18;;;;;;;9.10;7.57;;;24.70;46.00;;;;;;5016191;28;20479;-88
2022/05/04 13:49:45;;;;;;;11.40;6.50;;;24.80;46.90;;;;;;5016591;28;20458;-89
2022/05/04 13:55:00;;;;;;;7.63;7.03;;;24.60;45.20;;;;;;5015286;28;21019;-88
2022/05/04 13:57:27;;;;;;;9.10;7.40;;;24.80;46.30;;;;;;4983343;28;20477;-89
2022/05/04 13:59:54;;;;;;;7.40;6.70;;;24.80;46.50;;;;;;5000335;28;20534;-87
2022/05/04 14:02:21;;;;;;;8.27;6.60;;;24.90;47.00;;;;;;5002199;28;20441;-88
2022/05/04 14:04:48;;;;;;;9.97;7.33;;;24.90;45.20;;;;;;5022428;28;20552;-88
2022/05/04 14:07:15;;;;;;;8.10;7.20;;;25.00;46.50;;;;;;5017002;28;20474;-89